METAR Data
IDs: Format: Raw Decoded Include TAF

Data at: 1835 UTC 26 Sep 2021

UKBB 261830Z 35003MPS CAVOK 09/07 Q1020 R88/CLRD// NOSIG